logo
App data

Deisim

Live the experience of being a powerful god and create the world to see the growth of mankind.
Store | Hub | SteamDB | Site
Developer: Myron Software Publisher: Myron Software
Genre: Casual, Indie, Simulation, Strategy
Languages: English, French, Italian, German, Spanish - Spain, Swedish, Simplified Chinese, Korean, Japanese, Polish, Russian, Turkish, Dutch, Portuguese - Brazil, Thai
Tags: God Game (135), Sandbox (127), Building (124), Resource Management (119), Life Sim (113), Artificial Intelligence (106), Colony Sim (103), Simulation (100), City Builder (97), Mythology (95), Strategy (93), Outbreak Sim (91), Relaxing (89), Funny (87), VR (87), Colorful (83), Minimalist (73), Family Friendly (71), Singleplayer (63), Indie (58), VR Only (1)
Category: Single-player, Steam Achievements, Tracked Controller Support
Release date: Sep 1, 2022 (previously in Early Access)
Price: $14.99
Old userscore: 92% Owners: 20,000 .. 50,000
Followers: 4,110
Peak concurrent players yesterday: 2
YouTube stats: 13 views and 1 comments for top 50 videos uploaded last week, 1 new videos uploaded yesterday.
Playtime total: 01:50 (average) 02:15 (median)

Steam Spy is still in beta, so expect major bugs.

Owners data:

Access restricted.

This feature is only available to users with special access rights. Sorry.

If you want to proceed, you need to register or log in first and then back Steam Spy on Patreon. Look for Indie or Pro pledge.

Don't forget to use the same email as on Steam Spy!

If you've recently backed Steam Spy on Patreon, please note, that it might take around 15 minutes for your access rights to sync. In most cases you'll need to re-login on Steam Spy too.

Audience in 2 weeks:

Access restricted.

This feature is only available to users with special access rights. Sorry.

If you want to proceed, you need to register or log in first and then back Steam Spy on Patreon. Look for Indie or Pro pledge.

Don't forget to use the same email as on Steam Spy!

If you've recently backed Steam Spy on Patreon, please note, that it might take around 15 minutes for your access rights to sync. In most cases you'll need to re-login on Steam Spy too.

Peak daily concurrent players:

CCU data courtesy of SteamDB. Used with permission.

Hourly concurrent players:

Daily Twitch stats:

Hourly Twitch stats:

Followers over time

Access restricted.

This feature is only available to users with special access rights. Sorry.

If you want to proceed, you need to register or log in first and then back Steam Spy on Patreon. Look for Indie or Pro pledge.

Don't forget to use the same email as on Steam Spy!

If you've recently backed Steam Spy on Patreon, please note, that it might take around 15 minutes for your access rights to sync. In most cases you'll need to re-login on Steam Spy too.

Views for top 50 videos on YouTube for this game:

Games similar to this one:

# Game Release date
Price
Score rank
(Userscore / Metascore)
Owners
Players
Playtime (Median)
1 Critter Crunch Sep 11, 2012 $6.99N/A (N/A)20,000 .. 50,0000%00:00 (00:00)
2 BIT.TRIP BEAT Nov 2, 2010 $5.99N/A (N/A)50,000 .. 100,0000%00:00 (00:00)
3 Super Splatters Jun 26, 2013 N/AN/A (N/A/73%)50,000 .. 100,0000%00:00 (00:00)
4 Ms. Splosion Man Apr 3, 2013 $9.99N/A (N/A)50,000 .. 100,0000%00:00 (00:00)
5 Titan Attacks! Feb 3, 2012 $12.99N/A (N/A)50,000 .. 100,0000%00:00 (00:00)
6 BIT.TRIP CORE Oct 2, 2012 $9.99N/A (N/A)50,000 .. 100,0000%00:00 (00:00)
7 BIT.TRIP VOID Dec 19, 2012 $9.99N/A (N/A)20,000 .. 50,0000%00:00 (00:00)
8 Tales From Space: Mutant Blobs Attack Aug 15, 2012 $9.99N/A (N/A/83%)50,000 .. 100,0000%00:00 (00:00)
9 All Zombies Must Die!: Scorepocalypse Apr 19, 2012 $4.99N/A (N/A)20,000 .. 50,0000%00:00 (00:00)
10 Sugar Cube: Bittersweet Factory Nov 7, 2012 $6.99N/A (N/A)20,000 .. 50,0000%00:00 (00:00)
11 Party of Sin Dec 13, 2012 $5.99N/A (N/A)50,000 .. 100,0000%00:00 (00:00)
12 Home Jun 1, 2012 $4.99N/A (N/A/69%)200,000 .. 500,0000%00:00 (00:00)
13 Ultratron Mar 18, 2013 $12.99N/A (N/A)100,000 .. 200,0000%00:00 (00:00)
14 Cargo Commander Nov 1, 2012 $0.59N/A (N/A)50,000 .. 100,0000%00:00 (00:00)
15 Retro/Grade Mar 20, 2013 $9.99N/A (N/A)50,000 .. 100,0000%00:00 (00:00)
16 Papo & Yo Apr 18, 2013 $14.99N/A (N/A/70%)200,000 .. 500,0000%00:00 (00:00)
17 Dream Jul 31, 2015 $8.99N/A (N/A/59%)50,000 .. 100,0000%00:00 (00:00)
18 Godus Jul 1, 1989 $14.99N/A (N/A)200,000 .. 500,0000%00:00 (00:00)
19 Wake Jul 4, 1970 $4.99N/A (N/A)0 .. 20,0000%00:00 (00:00)
20 Zack Zero Apr 29, 2013 $2.99N/A (N/A)50,000 .. 100,0000%00:00 (00:00)
21 Element4l May 24, 2013 $8.99N/A (N/A/77%)50,000 .. 100,0000%00:00 (00:00)
22 Intake Nov 5, 2013 $9.99N/A (N/A)20,000 .. 50,0000%00:00 (00:00)
23 Super Puzzle Platformer Deluxe May 24, 2013 $7.99N/A (N/A)20,000 .. 50,0000%00:00 (00:00)
24 Poöf Nov 8, 2013 $6.99N/A (N/A)20,000 .. 50,0000%00:00 (00:00)
25 The Novelist Dec 10, 2013 $4.99N/A (N/A/66%)100,000 .. 200,0000%00:00 (00:00)
26 Knytt Underground Oct 25, 2013 $6.99N/A (N/A)50,000 .. 100,0000%00:00 (00:00)
27 Escape Goat Jun 14, 2012 $4.99N/A (N/A)20,000 .. 50,0000%00:00 (00:00)
28 Constant C Mar 7, 2014 $9.99N/A (N/A/60%)0 .. 20,0000%00:00 (00:00)
29 Solar Flux Oct 24, 2013 $9.99N/A (N/A)100,000 .. 200,0000%00:00 (00:00)
30 FOTONICA Nov 6, 2014 $14.99N/A (N/A/71%)50,000 .. 100,0000%00:00 (00:00)
31 Gentlemen! Nov 5, 2013 $4.99N/A (N/A)20,000 .. 50,0000%00:00 (00:00)
32 Escape Goat 2 Mar 24, 2014 $4.99N/A (N/A/76%)50,000 .. 100,0000%00:00 (00:00)
33 Survivor Squad Nov 8, 2013 $2.99N/A (N/A)100,000 .. 200,0000%00:00 (00:00)
34 Montague's Mount Nov 19, 2013 $4.99N/A (N/A/39%)20,000 .. 50,0000%00:00 (00:00)
35 Ballpoint Universe - Infinite Dec 17, 2013 $3.99N/A (N/A)50,000 .. 100,0000%00:00 (00:00)
36 STARWHAL Sep 29, 2014 $11.99N/A (N/A)50,000 .. 100,0000%00:00 (00:00)
37 Final Rush Jan 17, 2014 $4.99N/A (N/A)20,000 .. 50,0000%00:00 (00:00)
38 Full Bore May 6, 2014 $14.99N/A (N/A/72%)20,000 .. 50,0000%00:00 (00:00)
39 Imagine Me Mar 14, 2014 $2.99N/A (N/A)20,000 .. 50,0000%00:00 (00:00)
40 Montas Mar 24, 2014 $9.99N/A (N/A)0 .. 20,0000%00:00 (00:00)
41 Jones On Fire Mar 14, 2013 $0.59N/A (N/A)50,000 .. 100,0000%00:00 (00:00)
42 10 Second Ninja Mar 5, 2014 $1.99N/A (N/A/72%)50,000 .. 100,0000%00:00 (00:00)
43 Labyrinthine Dreams May 26, 2015 $1.99N/A (N/A)50,000 .. 100,0004.76%03:40 (01:13)
44 Imagine Earth May 25, 2021 $24.99N/A (N/A/78%)50,000 .. 100,0000%00:00 (00:00)
45 T.E.C. 3001 Apr 10, 2014 N/AN/A (N/A)20,000 .. 50,0000%00:00 (00:00)
46 Munin Jun 10, 2014 $4.99N/A (N/A/68%)200,000 .. 500,0003.13%04:43 (01:34)
47 Rabbit Hole 3D: Steam Edition Apr 25, 2014 $2.99N/A (N/A)50,000 .. 100,0000%00:00 (00:00)
48 ReignMaker Apr 16, 2014 $14.99N/A (N/A)50,000 .. 100,0000%00:00 (00:00)
49 Autocraft Sep 20, 2017 $9.99N/A (N/A)0 .. 20,0000%00:00 (00:00)
50 Volt Apr 14, 2014 $0.99N/A (N/A)100,000 .. 200,0000%00:00 (00:00)
51 Three Dead Zed Jul 7, 2014 $5.99N/A (N/A)100,000 .. 200,0000%00:00 (00:00)
52 Uriel's Chasm Sep 12, 2014 $4.99N/A (N/A)200,000 .. 500,0000%00:00 (00:00)
53 Cosmochoria Apr 27, 2015 $9.99N/A (N/A)20,000 .. 50,0000%00:00 (00:00)
54 Road Not Taken Aug 5, 2014 $14.99N/A (N/A/75%)50,000 .. 100,0000%00:00 (00:00)
55 The Promised Land Jul 11, 2012 $6.99N/A (N/A)20,000 .. 50,0000%00:00 (00:00)
56 TownCraft Feb 25, 2015 $9.99N/A (N/A)0 .. 20,0000%00:00 (00:00)
57 Dreaming Sarah Mar 12, 2015 $5.99N/A (N/A)200,000 .. 500,0000%00:00 (00:00)
58 Captain Forever Remix Jun 3, 2016 $9.99N/A (N/A)20,000 .. 50,0000%00:00 (00:00)
59 Frederic: Resurrection of Music May 16, 2014 $0.53N/A (N/A)100,000 .. 200,0000%00:00 (00:00)
60 Frederic: Evil Strikes Back May 23, 2014 $0.79N/A (N/A)200,000 .. 500,0000%00:00 (00:00)
61 Rhythm Destruction Jun 16, 2014 $4.99N/A (N/A)50,000 .. 100,0000%00:00 (00:00)
62 Boson X Sep 15, 2014 $2.99N/A (N/A)200,000 .. 500,0000%00:00 (00:00)
63 TRISTOY Jan 15, 2015 $6.99N/A (N/A/49%)20,000 .. 50,0000%00:00 (00:00)
64 Iron Fisticle Sep 16, 2014 $0.89N/A (N/A)50,000 .. 100,00014.29%03:51 (01:17)
65 Fancy Skulls Jun 16, 2014 $8.99N/A (N/A)50,000 .. 100,0000%00:00 (00:00)
66 Curses 'N Chaos Aug 18, 2015 $9.99N/A (N/A)20,000 .. 50,0000%00:00 (00:00)
67 Back to Bed Aug 6, 2014 $0.59N/A (N/A)1,000,000 .. 2,000,0000.89%00:01 (00:00)
68 NEON STRUCT May 20, 2015 $17.99N/A (N/A/62%)50,000 .. 100,0000%00:00 (00:00)
69 Mega Coin Squad Aug 15, 2014 $14.99N/A (N/A/56%)0 .. 20,0000%00:00 (00:00)
70 The Masterplan Jun 4, 2015 $19.99N/A (N/A/68%)50,000 .. 100,0000%00:00 (00:00)
71 The Waste Land Sep 16, 2014 $9.99N/A (N/A)0 .. 20,0000%00:00 (00:00)
72 Velocibox Sep 8, 2014 $4.99N/A (N/A)50,000 .. 100,0000%00:00 (00:00)
73 Squishy the Suicidal Pig Oct 23, 2014 $5.99N/A (N/A)200,000 .. 500,0000%00:00 (00:00)
74 Chariot Nov 12, 2014 $14.99N/A (N/A/76%)100,000 .. 200,0000%00:00 (00:00)
75 Ninja Pizza Girl Sep 30, 2015 $6.99N/A (N/A/82%)50,000 .. 100,0000%00:00 (00:00)
76 Cavern Kings Sep 30, 2014 $4.99N/A (N/A)20,000 .. 50,0000%00:00 (00:00)
77 iO Dec 5, 2014 $4.99N/A (N/A)20,000 .. 50,0000%00:00 (00:00)
78 Horizon Shift May 29, 2015 $4.99N/A (N/A)100,000 .. 200,0000%00:00 (00:00)
79 Super Life of Pixel Dec 20, 2018 $9.99N/A (N/A)20,000 .. 50,0000%00:00 (00:00)
80 Pix the Cat Jan 29, 2015 $4.99N/A (N/A/77%)100,000 .. 200,0008.33%03:37 (01:12)
81 Tulpa Jan 29, 2015 $2.99N/A (N/A)50,000 .. 100,0000%00:00 (00:00)
82 Phoenix Force Nov 13, 2014 $0.99N/A (N/A)100,000 .. 200,0005.56%04:18 (01:26)
83 Marvin's Mittens Dec 17, 2014 $5.99N/A (N/A)20,000 .. 50,0000%00:00 (00:00)
84 Dwarf Tower May 5, 2014 $0.99N/A (N/A)20,000 .. 50,0000%00:00 (00:00)
85 Sky Mercenaries Dec 16, 2014 $9.99N/A (N/A)20,000 .. 50,0000%00:00 (00:00)
86 Chronicles of a Dark Lord: Episode 1 Tides of Fate Complete Dec 19, 2014 N/AN/A (N/A)50,000 .. 100,0000%00:00 (00:00)
87 Four Sided Fantasy Aug 30, 2016 $9.99N/A (N/A)50,000 .. 100,0000%00:00 (00:00)
88 Bermuda Mar 17, 2015 $2.99N/A (N/A)20,000 .. 50,0000%00:00 (00:00)
89 Ukrainian Ninja Dec 23, 2014 FreeN/A (N/A)50,000 .. 100,0000%00:00 (00:00)
90 TIMEframe Jul 7, 2015 $5.99N/A (N/A)50,000 .. 100,0000%00:00 (00:00)
91 Tomb of Tyrants Jun 25, 2015 $7.99N/A (N/A)20,000 .. 50,0000%00:00 (00:00)
92 On A Roll 3D Feb 12, 2015 $3.99N/A (N/A)50,000 .. 100,0000%00:00 (00:00)
93 Glorkian Warrior: The Trials Of Glork Mar 24, 2015 $0.99N/A (N/A)20,000 .. 50,0006.25%07:11 (02:23)
94 Countless Rooms of Death Feb 20, 2014 $0.99N/A (N/A)20,000 .. 50,0000%00:00 (00:00)
95 It came from space and ate our brains Mar 19, 2015 $9.99N/A (N/A)200,000 .. 500,0000%00:00 (00:00)
96 Disillusions Manga Horror Apr 6, 2013 $0.99N/A (N/A)20,000 .. 50,0000%00:00 (00:00)
97 Three Fourths Home: Extended Edition Mar 20, 2015 $4.99N/A (N/A/77%)20,000 .. 50,0000%00:00 (00:00)
98 Rats - Time is running out! Aug 19, 2015 N/AN/A (N/A)50,000 .. 100,0000%00:00 (00:00)
99 Starship Traveller Mar 11, 2015 $4.99N/A (N/A)0 .. 20,0000%00:00 (00:00)
100 Reflections Jun 26, 2015 $9.99N/A (N/A)0 .. 20,0000%00:00 (00:00)
101 Farlight Explorers Feb 1, 2019 $9.99N/A (N/A)0 .. 20,0000%00:00 (00:00)
102 Porcunipine May 21, 2015 $0.99N/A (N/A)20,000 .. 50,0005.88%04:17 (01:25)
103 An Octave Higher Mar 27, 2015 $2.39N/A (N/A)20,000 .. 50,0000%00:00 (00:00)
104 Bunker - The Underground Game May 21, 2015 $3.99N/A (N/A/70%)20,000 .. 50,0000%00:00 (00:00)
105 Miner Warfare Apr 6, 2012 $2.99N/A (N/A)20,000 .. 50,00033.33%04:12 (01:24)
106 NEO AQUARIUM - The King of Crustaceans - Jun 8, 2015 $1.79N/A (N/A)50,000 .. 100,0000%00:00 (00:00)
107 Home is Where One Starts... May 12, 2015 $2.99N/A (N/A)20,000 .. 50,00014.29%03:29 (01:09)
108 Beyond Eyes Aug 11, 2015 N/AN/A (N/A/60%)100,000 .. 200,0000%00:00 (00:00)
109 Gryphon Knight Epic Aug 20, 2015 $9.99N/A (N/A/55%)20,000 .. 50,0000%00:00 (00:00)
110 In Space We Brawl Jul 17, 2015 N/AN/A (N/A)0 .. 20,0000%00:00 (00:00)
111 Hare In The Hat Apr 1, 2015 $0.99N/A (N/A)50,000 .. 100,0000%00:00 (00:00)
112 Kiai Resonance Apr 21, 2015 $4.99N/A (N/A)20,000 .. 50,0000%00:00 (00:00)
113 Spellsworn Mar 13, 2018 FreeN/A (N/A)100,000 .. 200,0000%00:00 (00:00)
114 Luna Sky Oct 2, 2015 $12.99N/A (N/A)50,000 .. 100,0000%00:00 (00:00)
115 Interstellar Rift Sep 24, 2020 $6.79N/A (N/A)50,000 .. 100,0000%00:00 (00:00)
116 BRAWL Aug 13, 2015 $14.99N/A (N/A)0 .. 20,0000%00:00 (00:00)
117 AdvertCity Apr 17, 2015 $11.99N/A (N/A)0 .. 20,0000%00:00 (00:00)
118 Dustbowl May 18, 2015 $8.99N/A (N/A)0 .. 20,0000%00:00 (00:00)
119 Polyball Dec 1, 2017 $14.99N/A (N/A)200,000 .. 500,0000%00:00 (00:00)
120 Season of 12 Colors Mar 14, 2016 $2.99N/A (N/A)50,000 .. 100,0000%00:00 (00:00)
121 Football, Tactics & Glory Jun 1, 2018 $24.99N/A (N/A)200,000 .. 500,0000%00:00 (00:00)
122 The Adventures of Mr. Bobley Jun 30, 2015 $1.99N/A (N/A)50,000 .. 100,0000%00:00 (00:00)
123 Monument Jun 5, 2015 $1.99N/A (N/A)200,000 .. 500,0005.88%09:56 (03:18)
124 Western Press Apr 21, 2016 $0.54N/A (N/A)20,000 .. 50,0000%00:00 (00:00)
125 Orion Trail Oct 12, 2015 $7.99N/A (N/A)0 .. 20,0000%00:00 (00:00)
126 Action Alien Jun 26, 2015 $0.99N/A (N/A)100,000 .. 200,0000%00:00 (00:00)
127 8Bit Fiesta - Party Game Sep 30, 2016 FreeN/A (N/A)50,000 .. 100,0000%00:00 (00:00)
128 Dead In Bermuda Aug 27, 2015 $14.99N/A (N/A)20,000 .. 50,0000%00:00 (00:00)
129 Aviary Attorney Dec 21, 2015 $14.99N/A (N/A/77%)20,000 .. 50,0000%00:00 (00:00)
130 none Nov 4, 2015 N/AN/A (N/A)20,000 .. 50,0000%00:00 (00:00)
131 Super Trench Attack 2 Nov 6, 2015 $0.59N/A (N/A)20,000 .. 50,0000%00:00 (00:00)
132 A.I. Invasion Sep 30, 2015 $2.99N/A (N/A)0 .. 20,0000%00:00 (00:00)
133 Earth Overclocked Dec 4, 2015 $4.99N/A (N/A)20,000 .. 50,0000%00:00 (00:00)
134 Stardust Galaxy Warriors: Stellar Climax Nov 10, 2015 $9.99N/A (N/A)50,000 .. 100,0000%00:00 (00:00)
135 Redemption: Eternal Quest Aug 28, 2015 $0.99N/A (N/A)100,000 .. 200,0002.94%03:49 (01:16)
136 Void Invaders Aug 14, 2015 $2.99N/A (N/A)20,000 .. 50,0000%00:00 (00:00)
137 Blaster Shooter GunGuy! Aug 10, 2015 $0.99N/A (N/A)100,000 .. 200,0000%00:00 (00:00)
138 Wild Island Quest Sep 4, 2015 $1.99N/A (N/A)50,000 .. 100,0000%00:00 (00:00)
139 Kitchen Simulator 2015 Sep 4, 2015 $0.99N/A (N/A)20,000 .. 50,0007.14%03:23 (01:07)
140 Press X to Not Die Oct 6, 2017 $0.74N/A (N/A)100,000 .. 200,0006.67%04:05 (01:21)
141 Club Life Apr 13, 2016 $12.99N/A (N/A)20,000 .. 50,0000%00:00 (00:00)
142 Jet Set Knights Jan 1, 2016 $9.99N/A (N/A)20,000 .. 50,0000%00:00 (00:00)
143 1,000 Heads Among the Trees Dec 11, 2015 $4.99N/A (N/A)100,000 .. 200,0000%00:00 (00:00)
144 Timber and Stone Oct 20, 2015 $4.99N/A (N/A)20,000 .. 50,0000%00:00 (00:00)
145 Fist Slash: Of Ultimate Fury Dec 10, 2015 $0.99N/A (N/A)20,000 .. 50,0000%00:00 (00:00)
146 The Purring Quest Nov 12, 2015 $9.99N/A (N/A)100,000 .. 200,0000%00:00 (00:00)
147 Perraw - FPS Clone War Alpha Jan 29, 2016 $0.99N/A (N/A)20,000 .. 50,00014.29%03:41 (01:50)
148 Faron's Fate Aug 14, 2015 $0.99N/A (N/A)0 .. 20,0000%00:00 (00:00)
149 Morphine Oct 26, 2015 $2.99N/A (N/A)50,000 .. 100,0008.33%08:52 (02:57)
150 Days Under Custody Nov 23, 2015 $4.99N/A (N/A)20,000 .. 50,0000%00:00 (00:00)
151 Heavy Gear Assault Feb 10, 2017 N/AN/A (N/A)0 .. 20,0000%00:00 (00:00)
152 Cosmic Leap Mar 17, 2016 $0.99N/A (N/A)50,000 .. 100,0000%00:00 (00:00)
153 Godus Wars Feb 3, 2016 $14.99N/A (N/A)50,000 .. 100,0000%00:00 (00:00)
154 Bell Ringer Mar 6, 2016 $6.99N/A (N/A)100,000 .. 200,0000%00:00 (00:00)
155 PERFECT ANGLE: The puzzle game based on optical illusions Dec 22, 2015 $9.99N/A (N/A)100,000 .. 200,0000%00:00 (00:00)
156 TurnOn Jun 1, 2016 $14.99N/A (N/A/67%)20,000 .. 50,0000%00:00 (00:00)
157 IMSCARED Jan 31, 2016 $3.99N/A (N/A)100,000 .. 200,00011.11%00:11 (00:03)
158 Tiny Guardians Mar 24, 2016 $9.99N/A (N/A)0 .. 20,0000%00:00 (00:00)
159 Doodle Kingdom Jun 9, 2016 $8.99N/A (N/A)50,000 .. 100,0000%00:00 (00:00)
160 10 Second Ninja X Jul 19, 2016 $0.99N/A (N/A)200,000 .. 500,0000%00:00 (00:00)
161 Empire of the Gods May 13, 2008 $0.99N/A (N/A)50,000 .. 100,0000%00:00 (00:00)
162 Mindless Running Feb 22, 2016 $0.49N/A (N/A)20,000 .. 50,0005.56%03:35 (01:11)
163 Mimpi Dreams Mar 22, 2016 FreeN/A (N/A)20,000 .. 50,0000%00:00 (00:00)
164 Bunker Punks May 28, 2018 $14.99N/A (N/A)20,000 .. 50,0000%00:00 (00:00)
165 Cube Land Arena Mar 8, 2019 $4.99N/A (N/A)50,000 .. 100,0000%00:00 (00:00)
166 Hero Quest: Tower Conflict Apr 13, 2016 $0.99N/A (N/A)200,000 .. 500,0001.27%03:22 (01:07)
167 CrazyCars3D Mar 28, 2016 $2.99N/A (N/A)50,000 .. 100,0000%00:00 (00:00)
168 Domino Sky Apr 5, 2016 $3.99N/A (N/A)50,000 .. 100,0000%00:00 (00:00)
169 OPUS: The Day We Found Earth Apr 21, 2016 $2.24N/A (N/A)100,000 .. 200,0000%00:00 (00:00)
170 Wrath of Anna Apr 2, 2018 $19.99N/A (N/A)50,000 .. 100,0000%00:00 (00:00)
171 Snooker Nation Championship Apr 27, 2016 $3.99N/A (N/A)20,000 .. 50,0000%00:00 (00:00)
172 Moonstone Tavern - A Fantasy Tavern Sim! May 13, 2016 $7.99N/A (N/A)20,000 .. 50,0000%00:00 (00:00)
173 NORTH Apr 27, 2016 $1.03N/A (N/A)200,000 .. 500,0002.27%03:22 (01:07)
174 上帝之城 I:监狱帝国 [City of God I - Prison Empire] Jul 9, 2018 $18.99N/A (N/A)100,000 .. 200,0000%00:00 (00:00)
175 The Nest Jun 14, 2016 FreeN/A (N/A)0 .. 20,0000%00:00 (00:00)
176 Scanner Sombre Apr 26, 2017 $5.99N/A (N/A/67%)100,000 .. 200,0000%00:00 (00:00)
177 ORCS May 20, 2016 $1.99N/A (N/A)20,000 .. 50,00020%03:28 (01:09)
178 Reflection of Mine Feb 24, 2017 $7.99N/A (N/A)20,000 .. 50,0000%00:00 (00:00)
179 Star Drifter Jun 1, 2016 $0.99N/A (N/A)200,000 .. 500,0000%00:00 (00:00)
180 Call Of The Mighty Warriors Jun 2, 2016 $0.49N/A (N/A)20,000 .. 50,0000%00:00 (00:00)
181 Karma Miwa Aug 12, 2016 FreeN/A (N/A)20,000 .. 50,0000%00:00 (00:00)
182 Super Duper Party Pooper Jun 6, 2016 $0.99N/A (N/A/40%)100,000 .. 200,0000%00:00 (00:00)
183 DashBored Jun 13, 2016 $4.99N/A (N/A)20,000 .. 50,0000%00:00 (00:00)
184 Bohemian Killing Jul 21, 2016 $12.99N/A (N/A/55%)20,000 .. 50,0000%00:00 (00:00)
185 Alteric Jul 13, 2016 $3.99N/A (N/A)20,000 .. 50,0000%00:00 (00:00)
186 Dinosaur Forest May 17, 2017 $1.99N/A (N/A)100,000 .. 200,0000%00:00 (00:00)
187 Wheels of Aurelia Sep 20, 2016 $14.99N/A (N/A/63%)20,000 .. 50,0000%00:00 (00:00)
188 Joana's Life Sep 1, 2016 $0.99N/A (N/A)50,000 .. 100,0000%00:00 (00:00)
189 Intensive Exposure Sep 6, 2016 $4.99N/A (N/A)20,000 .. 50,0000%00:00 (00:00)
190 It Comes Around - A Kinetic Novel Sep 29, 2016 $2.99N/A (N/A)0 .. 20,0000%00:00 (00:00)
191 Starship Annihilator Sep 2, 2016 $0.37N/A (N/A)200,000 .. 500,0000%00:00 (00:00)
192 The Gleam: VR Escape the Room Oct 14, 2016 $3.99N/A (N/A)50,000 .. 100,0000%00:00 (00:00)
193 Please, Don't Touch Anything 3D Dec 7, 2016 $9.99N/A (N/A)100,000 .. 200,0000%00:00 (00:00)
194 mr.President Prologue Episode Sep 20, 2016 $0.99N/A (N/A)50,000 .. 100,0004%06:18 (02:06)
195 AIRHEART - Tales of broken Wings Jul 24, 2018 $4.49N/A (N/A/62%)50,000 .. 100,0000%00:00 (00:00)
196 BoomTown! Deluxe Oct 14, 2016 $0.99N/A (N/A)0 .. 20,0000%00:00 (00:00)
197 Pixel Gladiator Sep 8, 2017 $1.24N/A (N/A)20,000 .. 50,00010%03:18 (01:06)
198 Snake Pass Mar 28, 2017 $19.99N/A (N/A/71%)500,000 .. 1,000,0000.67%00:23 (00:07)
199 Wayout Nov 4, 2016 $0.33N/A (N/A)50,000 .. 100,0000%00:00 (00:00)
200 Zolg Dec 2, 2016 $0.99N/A (N/A)100,000 .. 200,0000%00:00 (00:00)
201 99Vidas Dec 22, 2016 $12.99N/A (N/A/69%)50,000 .. 100,0000%00:00 (00:00)
202 Witch It Oct 22, 2020 $4.99N/A (N/A)500,000 .. 1,000,0002.7%01:37 (02:27)
203 Introvert Quest Mar 15, 2017 $2.99N/A (N/A)100,000 .. 200,0002.5%04:10 (01:23)
204 Distant Space Dec 20, 2016 $0.28N/A (N/A)100,000 .. 200,0000%00:00 (00:00)
205 Child Phobia: Nightcoming Fears Dec 20, 2016 $1.99N/A (N/A)20,000 .. 50,0000%00:00 (00:00)
206 Mistwood Heroes Dec 30, 2016 $0.39N/A (N/A)50,000 .. 100,00015.38%03:16 (01:09)
207 Project LUX Feb 2, 2018 $24.99N/A (N/A)20,000 .. 50,0000%00:00 (00:00)
208 Starship Theory Jul 4, 2017 FreeN/A (N/A)50,000 .. 100,0000%00:00 (00:00)
209 Three Kingdoms The Last Warlord Feb 2021 $3.99N/A (N/A)50,000 .. 100,0000%00:00 (00:00)
210 GORN Jul 18, 2019 $19.99N/A (N/A/85%)200,000 .. 500,0000%00:00 (00:00)
211 Open Sorcery Feb 22, 2017 $3.99N/A (N/A)0 .. 20,0000%00:00 (00:00)
212 Monolith Jun 7, 2017 $7.99N/A (N/A/83%)100,000 .. 200,0000%00:00 (00:00)
213 Guns of Icarus Alliance Mar 31, 2017 $4.99N/A (N/A)100,000 .. 200,0000%00:00 (00:00)
214 The Archotek Project Apr 28, 2017 $0.99N/A (N/A)200,000 .. 500,0000%00:00 (00:00)

Tags over time:

Access restricted.

This feature is only available to users with special access rights. Sorry.

If you want to proceed, you need to register or log in first and then back Steam Spy on Patreon. Look for Indie or Pro pledge.

Don't forget to use the same email as on Steam Spy!

If you've recently backed Steam Spy on Patreon, please note, that it might take around 15 minutes for your access rights to sync. In most cases you'll need to re-login on Steam Spy too.

Owners of this game also own:

Access restricted.

This feature is only available to users with special access rights. Sorry.

If you want to proceed, you need to register or log in first and then back Steam Spy on Patreon. Look for Indie or Pro pledge.

Don't forget to use the same email as on Steam Spy!

If you've recently backed Steam Spy on Patreon, please note, that it might take around 15 minutes for your access rights to sync. In most cases you'll need to re-login on Steam Spy too.

Playtime distribution:

Access restricted.

This feature is only available to users with special access rights. Sorry.

If you want to proceed, you need to register or log in first and then back Steam Spy on Patreon. Look for Indie or Pro pledge.

Don't forget to use the same email as on Steam Spy!

If you've recently backed Steam Spy on Patreon, please note, that it might take around 15 minutes for your access rights to sync. In most cases you'll need to re-login on Steam Spy too.

Playtime (2 weeks):

Access restricted.

This feature is only available to users with special access rights. Sorry.

If you want to proceed, you need to register or log in first and then back Steam Spy on Patreon. Look for Indie or Pro pledge.

Don't forget to use the same email as on Steam Spy!

If you've recently backed Steam Spy on Patreon, please note, that it might take around 15 minutes for your access rights to sync. In most cases you'll need to re-login on Steam Spy too.

User reviews:

Login required.

Please register or log in to see this information.